sensor_id;sensor_type;location;lat;lon;timestamp;P1;durP1;ratioP1;P2;durP2;ratioP2
51475;SDS011;37554;50.362;7.568;2022-07-01T00:02:11;1.60;;;0.50;;
51475;SDS011;37554;50.362;7.568;2022-07-01T00:04:36;0.38;;;0.20;;
51475;SDS011;37554;50.362;7.568;2022-07-01T00:07:02;0.70;;;0.30;;
51475;SDS011;37554;50.362;7.568;2022-07-01T00:09:28;0.47;;;0.20;;
51475;SDS011;37554;50.362;7.568;2022-07-01T00:11:54;2.42;;;0.10;;
51475;SDS011;37554;50.362;7.568;2022-07-01T00:14:19;0.75;;;0.20;;
51475;SDS011;37554;50.362;7.568;2022-07-01T00:16:47;0.45;;;0.20;;
51475;SDS011;37554;50.362;7.568;2022-07-01T00:19:13;0.32;;;0.17;;
51475;SDS011;37554;50.362;7.568;2022-07-01T00:21:40;0.45;;;0.28;;
51475;SDS011;37554;50.362;7.568;2022-07-01T00:24:06;0.50;;;0.20;;
51475;SDS011;37554;50.362;7.568;2022-07-01T00:26:31;0.25;;;0.20;;
51475;SDS011;37554;50.362;7.568;2022-07-01T00:28:57;0.73;;;0.30;;
51475;SDS011;37554;50.362;7.568;2022-07-01T00:31:23;1.15;;;0.10;;
51475;SDS011;37554;50.362;7.568;2022-07-01T00:33:48;0.75;;;0.10;;
51475;SDS011;37554;50.362;7.568;2022-07-01T00:36:14;0.68;;;0.30;;
51475;SDS011;37554;50.362;7.568;2022-07-01T00:38:40;0.57;;;0.20;;
51475;SDS011;37554;50.362;7.568;2022-07-01T00:41:05;0.50;;;0.20;;
51475;SDS011;37554;50.362;7.568;2022-07-01T00:43:35;0.85;;;0.30;;
51475;SDS011;37554;50.362;7.568;2022-07-01T00:46:01;1.80;;;0.10;;
51475;SDS011;37554;50.362;7.568;2022-07-01T00:48:27;0.52;;;0.22;;
51475;SDS011;37554;50.362;7.568;2022-07-01T00:50:53;0.55;;;0.20;;
51475;SDS011;37554;50.362;7.568;2022-07-01T00:53:19;0.43;;;0.10;;
51475;SDS011;37554;50.362;7.568;2022-07-01T00:55:45;0.57;;;0.13;;
51475;SDS011;37554;50.362;7.568;2022-07-01T00:58:10;0.30;;;0.20;;
51475;SDS011;37554;50.362;7.568;2022-07-01T01:00:36;0.80;;;0.10;;
51475;SDS011;37554;50.362;7.568;2022-07-01T01:03:06;0.75;;;0.17;;
51475;SDS011;37554;50.362;7.568;2022-07-01T01:05:33;0.13;;;0.10;;
51475;SDS011;37554;50.362;7.568;2022-07-01T01:07:59;0.40;;;0.15;;
51475;SDS011;37554;50.362;7.568;2022-07-01T01:10:26;0.85;;;0.30;;
51475;SDS011;37554;50.362;7.568;2022-07-01T01:12:52;2.17;;;0.20;;
51475;SDS011;37554;50.362;7.568;2022-07-01T01:15:19;0.10;;;0.10;;
51475;SDS011;37554;50.362;7.568;2022-07-01T01:17:46;0.10;;;0.10;;
51475;SDS011;37554;50.362;7.568;2022-07-01T01:20:18;0.60;;;0.20;;
51475;SDS011;37554;50.362;7.568;2022-07-01T01:22:44;0.50;;;0.10;;
51475;SDS011;37554;50.362;7.568;2022-07-01T01:25:11;0.28;;;0.10;;
51475;SDS011;37554;50.362;7.568;2022-07-01T01:27:37;0.73;;;0.10;;
51475;SDS011;37554;50.362;7.568;2022-07-01T01:30:03;0.50;;;0.20;;
51475;SDS011;37554;50.362;7.568;2022-07-01T01:32:30;1.67;;;0.20;;
51475;SDS011;37554;50.362;7.568;2022-07-01T01:34:56;0.30;;;0.10;;
51475;SDS011;37554;50.362;7.568;2022-07-01T01:37:21;0.43;;;0.10;;
51475;SDS011;37554;50.362;7.568;2022-07-01T01:39:47;0.20;;;0.20;;
51475;SDS011;37554;50.362;7.568;2022-07-01T01:42:12;0.60;;;0.20;;
51475;SDS011;37554;50.362;7.568;2022-07-01T01:44:38;0.10;;;0.10;;
51475;SDS011;37554;50.362;7.568;2022-07-01T01:47:04;0.47;;;0.10;;
51475;SDS011;37554;50.362;7.568;2022-07-01T01:49:29;0.52;;;0.20;;
51475;SDS011;37554;50.362;7.568;2022-07-01T01:51:56;0.20;;;0.17;;
51475;SDS011;37554;50.362;7.568;2022-07-01T01:54:23;0.28;;;0.15;;
51475;SDS011;37554;50.362;7.568;2022-07-01T01:56:49;0.68;;;0.20;;
51475;SDS011;37554;50.362;7.568;2022-07-01T01:59:15;0.55;;;0.20;;
51475;SDS011;37554;50.362;7.568;2022-07-01T02:01:41;0.45;;;0.20;;
51475;SDS011;37554;50.362;7.568;2022-07-01T02:04:06;0.57;;;0.20;;
51475;SDS011;37554;50.362;7.568;2022-07-01T02:06:32;0.38;;;0.20;;
51475;SDS011;37554;50.362;7.568;2022-07-01T02:08:57;0.28;;;0.15;;
51475;SDS011;37554;50.362;7.568;2022-07-01T02:11:23;0.30;;;0.20;;
51475;SDS011;37554;50.362;7.568;2022-07-01T02:13:49;0.60;;;0.20;;
51475;SDS011;37554;50.362;7.568;2022-07-01T02:16:14;0.40;;;0.20;;
51475;SDS011;37554;50.362;7.568;2022-07-01T02:18:40;0.45;;;0.15;;
51475;SDS011;37554;50.362;7.568;2022-07-01T02:21:06;0.32;;;0.10;;
51475;SDS011;37554;50.362;7.568;2022-07-01T02:23:31;0.25;;;0.20;;
51475;SDS011;37554;50.362;7.568;2022-07-01T02:25:58;0.20;;;0.10;;
51475;SDS011;37554;50.362;7.568;2022-07-01T02:28:23;0.22;;;0.10;;
51475;SDS011;37554;50.362;7.568;2022-07-01T02:30:49;0.65;;;0.10;;
51475;SDS011;37554;50.362;7.568;2022-07-01T02:33:14;0.57;;;0.20;;
51475;SDS011;37554;50.362;7.568;2022-07-01T02:35:40;0.90;;;0.20;;
51475;SDS011;37554;50.362;7.568;2022-07-01T02:38:06;0.63;;;0.20;;
51475;SDS011;37554;50.362;7.568;2022-07-01T02:40:33;0.40;;;0.10;;
51475;SDS011;37554;50.362;7.568;2022-07-01T02:43:01;1.02;;;0.20;;
51475;SDS011;37554;50.362;7.568;2022-07-01T02:45:26;1.67;;;0.20;;
51475;SDS011;37554;50.362;7.568;2022-07-01T02:47:52;0.20;;;0.17;;
51475;SDS011;37554;50.362;7.568;2022-07-01T02:50:18;2.13;;;0.17;;
51475;SDS011;37554;50.362;7.568;2022-07-01T02:52:44;0.63;;;0.10;;
51475;SDS011;37554;50.362;7.568;2022-07-01T02:55:11;0.22;;;0.20;;
51475;SDS011;37554;50.362;7.568;2022-07-01T02:57:38;1.50;;;0.25;;
51475;SDS011;37554;50.362;7.568;2022-07-01T03:00:05;0.95;;;0.20;;
51475;SDS011;37554;50.362;7.568;2022-07-01T03:02:33;0.93;;;0.10;;
51475;SDS011;37554;50.362;7.568;2022-07-01T03:04:59;0.40;;;0.10;;
51475;SDS011;37554;50.362;7.568;2022-07-01T03:07:25;0.73;;;0.20;;
51475;SDS011;37554;50.362;7.568;2022-07-01T03:09:50;0.52;;;0.10;;
51475;SDS011;37554;50.362;7.568;2022-07-01T03:12:16;1.45;;;0.10;;
51475;SDS011;37554;50.362;7.568;2022-07-01T03:14:59;0.77;;;0.20;;
51475;SDS011;37554;50.362;7.568;2022-07-01T03:17:25;0.30;;;0.10;;
51475;SDS011;37554;50.362;7.568;2022-07-01T03:19:52;0.90;;;0.20;;
51475;SDS011;37554;50.362;7.568;2022-07-01T03:22:19;0.35;;;0.10;;
51475;SDS011;37554;50.362;7.568;2022-07-01T03:24:46;0.57;;;0.28;;
51475;SDS011;37554;50.362;7.568;2022-07-01T03:27:12;0.73;;;0.05;;
51475;SDS011;37554;50.362;7.568;2022-07-01T03:29:38;0.28;;;0.10;;
51475;SDS011;37554;50.362;7.568;2022-07-01T03:32:04;0.13;;;0.10;;
51475;SDS011;37554;50.362;7.568;2022-07-01T03:34:30;0.13;;;0.08;;
51475;SDS011;37554;50.362;7.568;2022-07-01T03:36:56;1.50;;;0.10;;
51475;SDS011;37554;50.362;7.568;2022-07-01T03:39:22;1.50;;;0.10;;
51475;SDS011;37554;50.362;7.568;2022-07-01T03:41:48;0.30;;;0.20;;
51475;SDS011;37554;50.362;7.568;2022-07-01T03:44:13;1.08;;;0.10;;
51475;SDS011;37554;50.362;7.568;2022-07-01T03:46:39;0.47;;;0.10;;
51475;SDS011;37554;50.362;7.568;2022-07-01T03:49:05;0.30;;;0.10;;
51475;SDS011;37554;50.362;7.568;2022-07-01T03:51:30;0.15;;;0.10;;
51475;SDS011;37554;50.362;7.568;2022-07-01T03:53:56;0.10;;;0.10;;
51475;SDS011;37554;50.362;7.568;2022-07-01T03:56:42;0.70;;;0.10;;
51475;SDS011;37554;50.362;7.568;2022-07-01T03:59:08;0.60;;;0.13;;
51475;SDS011;37554;50.362;7.568;2022-07-01T04:01:33;1.30;;;0.10;;
51475;SDS011;37554;50.362;7.568;2022-07-01T04:03:59;0.17;;;0.10;;
51475;SDS011;37554;50.362;7.568;2022-07-01T04:06:25;0.50;;;0.10;;
51475;SDS011;37554;50.362;7.568;2022-07-01T04:08:51;1.85;;;0.20;;
51475;SDS011;37554;50.362;7.568;2022-07-01T04:11:18;0.05;;;0.05;;
51475;SDS011;37554;50.362;7.568;2022-07-01T04:13:44;2.15;;;0.20;;
51475;SDS011;37554;50.362;7.568;2022-07-01T04:16:15;0.20;;;0.10;;
51475;SDS011;37554;50.362;7.568;2022-07-01T04:18:45;1.05;;;0.20;;
51475;SDS011;37554;50.362;7.568;2022-07-01T04:21:12;0.45;;;0.10;;
51475;SDS011;37554;50.362;7.568;2022-07-01T04:23:56;1.08;;;0.20;;
51475;SDS011;37554;50.362;7.568;2022-07-01T04:26:23;0.85;;;0.30;;
51475;SDS011;37554;50.362;7.568;2022-07-01T04:28:49;2.25;;;0.20;;
51475;SDS011;37554;50.362;7.568;2022-07-01T04:31:16;0.90;;;0.15;;
51475;SDS011;37554;50.362;7.568;2022-07-01T04:33:41;0.10;;;0.10;;
51475;SDS011;37554;50.362;7.568;2022-07-01T04:36:07;0.82;;;0.10;;
51475;SDS011;37554;50.362;7.568;2022-07-01T04:38:33;2.35;;;0.20;;
51475;SDS011;37554;50.362;7.568;2022-07-01T04:40:58;0.45;;;0.20;;
51475;SDS011;37554;50.362;7.568;2022-07-01T04:43:42;1.95;;;0.30;;
51475;SDS011;37554;50.362;7.568;2022-07-01T04:46:08;0.52;;;0.15;;
51475;SDS011;37554;50.362;7.568;2022-07-01T04:48:33;0.68;;;0.10;;
51475;SDS011;37554;50.362;7.568;2022-07-01T04:50:59;1.60;;;0.10;;
51475;SDS011;37554;50.362;7.568;2022-07-01T04:53:24;1.00;;;0.10;;
51475;SDS011;37554;50.362;7.568;2022-07-01T04:55:50;0.68;;;0.20;;
51475;SDS011;37554;50.362;7.568;2022-07-01T04:58:16;0.88;;;0.20;;
51475;SDS011;37554;50.362;7.568;2022-07-01T05:00:41;0.40;;;0.10;;
51475;SDS011;37554;50.362;7.568;2022-07-01T05:03:08;0.47;;;0.10;;
51475;SDS011;37554;50.362;7.568;2022-07-01T05:05:33;0.32;;;0.10;;
51475;SDS011;37554;50.362;7.568;2022-07-01T05:07:59;1.42;;;0.40;;
51475;SDS011;37554;50.362;7.568;2022-07-01T05:10:25;2.03;;;0.20;;
51475;SDS011;37554;50.362;7.568;2022-07-01T05:12:51;1.70;;;0.10;;
51475;SDS011;37554;50.362;7.568;2022-07-01T05:15:16;0.57;;;0.10;;
51475;SDS011;37554;50.362;7.568;2022-07-01T05:17:42;0.88;;;0.10;;
51475;SDS011;37554;50.362;7.568;2022-07-01T05:20:26;0.45;;;0.10;;
51475;SDS011;37554;50.362;7.568;2022-07-01T05:23:10;1.65;;;0.10;;
51475;SDS011;37554;50.362;7.568;2022-07-01T05:25:36;0.93;;;0.10;;
51475;SDS011;37554;50.362;7.568;2022-07-01T05:28:01;0.68;;;0.10;;
51475;SDS011;37554;50.362;7.568;2022-07-01T05:30:27;0.30;;;0.10;;
51475;SDS011;37554;50.362;7.568;2022-07-01T05:32:52;0.70;;;0.10;;
51475;SDS011;37554;50.362;7.568;2022-07-01T05:35:18;0.10;;;0.10;;
51475;SDS011;37554;50.362;7.568;2022-07-01T05:37:44;2.08;;;0.20;;
51475;SDS011;37554;50.362;7.568;2022-07-01T05:40:09;1.27;;;0.20;;
51475;SDS011;37554;50.362;7.568;2022-07-01T05:42:35;2.90;;;0.20;;
51475;SDS011;37554;50.362;7.568;2022-07-01T05:45:02;1.35;;;0.30;;
51475;SDS011;37554;50.362;7.568;2022-07-01T05:47:27;0.73;;;0.30;;
51475;SDS011;37554;50.362;7.568;2022-07-01T05:49:53;2.10;;;0.60;;
51475;SDS011;37554;50.362;7.568;2022-07-01T05:52:19;1.10;;;0.40;;
51475;SDS011;37554;50.362;7.568;2022-07-01T05:54:44;2.58;;;0.38;;
51475;SDS011;37554;50.362;7.568;2022-07-01T05:57:10;0.82;;;0.30;;
51475;SDS011;37554;50.362;7.568;2022-07-01T05:59:36;1.00;;;0.30;;
51475;SDS011;37554;50.362;7.568;2022-07-01T06:02:02;1.75;;;0.50;;
51475;SDS011;37554;50.362;7.568;2022-07-01T06:04:27;8.32;;;0.93;;
51475;SDS011;37554;50.362;7.568;2022-07-01T06:06:53;1.20;;;0.40;;
51475;SDS011;37554;50.362;7.568;2022-07-01T06:09:19;2.33;;;0.65;;
51475;SDS011;37554;50.362;7.568;2022-07-01T06:11:44;1.50;;;0.57;;
51475;SDS011;37554;50.362;7.568;2022-07-01T06:14:11;1.63;;;0.50;;
51475;SDS011;37554;50.362;7.568;2022-07-01T06:16:36;2.75;;;0.70;;
51475;SDS011;37554;50.362;7.568;2022-07-01T06:19:03;1.90;;;0.75;;
51475;SDS011;37554;50.362;7.568;2022-07-01T06:21:29;1.73;;;0.57;;
51475;SDS011;37554;50.362;7.568;2022-07-01T06:23:55;2.33;;;0.50;;
51475;SDS011;37554;50.362;7.568;2022-07-01T06:26:21;1.50;;;0.63;;
51475;SDS011;37554;50.362;7.568;2022-07-01T06:28:47;3.13;;;0.75;;
51475;SDS011;37554;50.362;7.568;2022-07-01T06:31:12;4.55;;;0.82;;
51475;SDS011;37554;50.362;7.568;2022-07-01T06:33:38;2.50;;;0.70;;
51475;SDS011;37554;50.362;7.568;2022-07-01T06:36:04;2.40;;;0.70;;
51475;SDS011;37554;50.362;7.568;2022-07-01T06:38:31;2.55;;;0.95;;
51475;SDS011;37554;50.362;7.568;2022-07-01T06:40:56;2.70;;;1.17;;
51475;SDS011;37554;50.362;7.568;2022-07-01T06:43:41;2.10;;;0.88;;
51475;SDS011;37554;50.362;7.568;2022-07-01T06:46:08;3.75;;;1.00;;
51475;SDS011;37554;50.362;7.568;2022-07-01T06:48:34;2.13;;;0.80;;
51475;SDS011;37554;50.362;7.568;2022-07-01T06:51:00;3.97;;;0.90;;
51475;SDS011;37554;50.362;7.568;2022-07-01T06:53:29;4.65;;;0.75;;
51475;SDS011;37554;50.362;7.568;2022-07-01T06:55:54;2.33;;;0.65;;
51475;SDS011;37554;50.362;7.568;2022-07-01T06:58:22;4.22;;;0.80;;
51475;SDS011;37554;50.362;7.568;2022-07-01T07:00:47;3.80;;;0.63;;
51475;SDS011;37554;50.362;7.568;2022-07-01T07:03:13;2.15;;;0.50;;
51475;SDS011;37554;50.362;7.568;2022-07-01T07:05:39;1.63;;;0.68;;
51475;SDS011;37554;50.362;7.568;2022-07-01T07:08:04;1.10;;;0.52;;
51475;SDS011;37554;50.362;7.568;2022-07-01T07:10:30;1.13;;;0.60;;
51475;SDS011;37554;50.362;7.568;2022-07-01T07:12:56;3.10;;;0.70;;
51475;SDS011;37554;50.362;7.568;2022-07-01T07:15:21;2.17;;;0.70;;
51475;SDS011;37554;50.362;7.568;2022-07-01T07:17:47;3.90;;;0.68;;
51475;SDS011;37554;50.362;7.568;2022-07-01T07:20:13;2.13;;;0.63;;
51475;SDS011;37554;50.362;7.568;2022-07-01T07:22:38;1.00;;;0.60;;
51475;SDS011;37554;50.362;7.568;2022-07-01T07:25:04;3.13;;;0.80;;
51475;SDS011;37554;50.362;7.568;2022-07-01T07:27:30;1.48;;;0.60;;
51475;SDS011;37554;50.362;7.568;2022-07-01T07:29:55;2.25;;;1.00;;
51475;SDS011;37554;50.362;7.568;2022-07-01T07:32:21;1.13;;;0.68;;
51475;SDS011;37554;50.362;7.568;2022-07-01T07:34:47;2.33;;;0.70;;
51475;SDS011;37554;50.362;7.568;2022-07-01T07:37:12;2.88;;;0.60;;
51475;SDS011;37554;50.362;7.568;2022-07-01T07:39:38;2.97;;;0.70;;
51475;SDS011;37554;50.362;7.568;2022-07-01T07:42:03;1.80;;;0.77;;
51475;SDS011;37554;50.362;7.568;2022-07-01T07:44:30;2.78;;;0.75;;
51475;SDS011;37554;50.362;7.568;2022-07-01T07:46:56;4.82;;;0.70;;
51475;SDS011;37554;50.362;7.568;2022-07-01T07:49:22;1.35;;;0.60;;
51475;SDS011;37554;50.362;7.568;2022-07-01T07:51:49;2.53;;;0.70;;
51475;SDS011;37554;50.362;7.568;2022-07-01T07:54:15;2.90;;;0.70;;
51475;SDS011;37554;50.362;7.568;2022-07-01T07:56:41;2.83;;;0.70;;
51475;SDS011;37554;50.362;7.568;2022-07-01T07:59:07;3.40;;;0.82;;
51475;SDS011;37554;50.362;7.568;2022-07-01T08:01:32;1.92;;;0.63;;
51475;SDS011;37554;50.362;7.568;2022-07-01T08:03:58;1.15;;;0.50;;
51475;SDS011;37554;50.362;7.568;2022-07-01T08:06:24;2.58;;;0.50;;
51475;SDS011;37554;50.362;7.568;2022-07-01T08:08:49;3.20;;;0.82;;
51475;SDS011;37554;50.362;7.568;2022-07-01T08:11:15;1.58;;;0.80;;
51475;SDS011;37554;50.362;7.568;2022-07-01T08:13:41;2.45;;;0.60;;
51475;SDS011;37554;50.362;7.568;2022-07-01T08:16:08;2.55;;;0.65;;
51475;SDS011;37554;50.362;7.568;2022-07-01T08:18:34;0.90;;;0.57;;
51475;SDS011;37554;50.362;7.568;2022-07-01T08:21:00;1.88;;;0.75;;
51475;SDS011;37554;50.362;7.568;2022-07-01T08:23:26;3.60;;;0.70;;
51475;SDS011;37554;50.362;7.568;2022-07-01T08:25:51;2.05;;;0.57;;
51475;SDS011;37554;50.362;7.568;2022-07-01T08:28:17;2.13;;;0.60;;
51475;SDS011;37554;50.362;7.568;2022-07-01T08:30:43;4.38;;;0.80;;
51475;SDS011;37554;50.362;7.568;2022-07-01T08:33:09;2.45;;;0.60;;
51475;SDS011;37554;50.362;7.568;2022-07-01T08:35:36;2.17;;;0.68;;
51475;SDS011;37554;50.362;7.568;2022-07-01T08:38:02;3.03;;;0.52;;
51475;SDS011;37554;50.362;7.568;2022-07-01T08:40:29;1.48;;;0.50;;
51475;SDS011;37554;50.362;7.568;2022-07-01T08:42:56;3.38;;;0.70;;
51475;SDS011;37554;50.362;7.568;2022-07-01T08:45:25;4.25;;;0.50;;
51475;SDS011;37554;50.362;7.568;2022-07-01T08:47:52;2.75;;;0.50;;
51475;SDS011;37554;50.362;7.568;2022-07-01T08:50:23;1.50;;;0.60;;
51475;SDS011;37554;50.362;7.568;2022-07-01T08:52:49;1.60;;;0.40;;
51475;SDS011;37554;50.362;7.568;2022-07-01T08:55:15;1.70;;;0.60;;
51475;SDS011;37554;50.362;7.568;2022-07-01T08:57:41;0.85;;;0.50;;
51475;SDS011;37554;50.362;7.568;2022-07-01T09:00:07;1.65;;;0.40;;
51475;SDS011;37554;50.362;7.568;2022-07-01T09:02:50;2.60;;;0.40;;
51475;SDS011;37554;50.362;7.568;2022-07-01T09:05:23;2.55;;;0.50;;
51475;SDS011;37554;50.362;7.568;2022-07-01T09:08:03;2.60;;;0.60;;
51475;SDS011;37554;50.362;7.568;2022-07-01T09:10:31;3.63;;;0.47;;
51475;SDS011;37554;50.362;7.568;2022-07-01T09:13:06;3.42;;;0.60;;
51475;SDS011;37554;50.362;7.568;2022-07-01T09:15:33;1.35;;;0.60;;
51475;SDS011;37554;50.362;7.568;2022-07-01T09:18:10;1.67;;;0.50;;
51475;SDS011;37554;50.362;7.568;2022-07-01T09:20:43;1.45;;;0.57;;
51475;SDS011;37554;50.362;7.568;2022-07-01T09:23:11;2.58;;;0.50;;
51475;SDS011;37554;50.362;7.568;2022-07-01T09:25:42;1.50;;;0.57;;
51475;SDS011;37554;50.362;7.568;2022-07-01T09:30:40;1.45;;;0.50;;
51475;SDS011;37554;50.362;7.568;2022-07-01T09:33:13;0.93;;;0.47;;
51475;SDS011;37554;50.362;7.568;2022-07-01T09:35:47;0.52;;;0.40;;
51475;SDS011;37554;50.362;7.568;2022-07-01T09:38:17;0.30;;;0.30;;
51475;SDS011;37554;50.362;7.568;2022-07-01T09:40:57;0.82;;;0.32;;
51475;SDS011;37554;50.362;7.568;2022-07-01T09:43:31;1.33;;;0.40;;
51475;SDS011;37554;50.362;7.568;2022-07-01T09:46:00;1.75;;;0.43;;
51475;SDS011;37554;50.362;7.568;2022-07-01T09:51:03;1.48;;;0.47;;
51475;SDS011;37554;50.362;7.568;2022-07-01T09:53:30;0.88;;;0.50;;
51475;SDS011;37554;50.362;7.568;2022-07-01T09:55:57;1.70;;;0.40;;
51475;SDS011;37554;50.362;7.568;2022-07-01T09:58:23;1.08;;;0.50;;
51475;SDS011;37554;50.362;7.568;2022-07-01T10:00:48;0.60;;;0.30;;
51475;SDS011;37554;50.362;7.568;2022-07-01T10:03:17;0.70;;;0.45;;
51475;SDS011;37554;50.362;7.568;2022-07-01T10:05:47;2.72;;;0.50;;
51475;SDS011;37554;50.362;7.568;2022-07-01T10:14:06;1.20;;;0.40;;
51475;SDS011;37554;50.362;7.568;2022-07-01T10:16:32;1.17;;;0.40;;
51475;SDS011;37554;50.362;7.568;2022-07-01T10:21:45;3.25;;;0.50;;
51475;SDS011;37554;50.362;7.568;2022-07-01T10:24:15;0.95;;;0.30;;
51475;SDS011;37554;50.362;7.568;2022-07-01T10:26:43;1.25;;;0.52;;
51475;SDS011;37554;50.362;7.568;2022-07-01T10:32:39;1.77;;;0.50;;
51475;SDS011;37554;50.362;7.568;2022-07-01T10:34:45;2.05;;;1.33;;
51475;SDS011;37554;50.362;7.568;2022-07-01T10:37:11;1.25;;;0.90;;
51475;SDS011;37554;50.362;7.568;2022-07-01T10:42:27;0.90;;;0.40;;
51475;SDS011;37554;50.362;7.568;2022-07-01T10:45:00;1.42;;;0.30;;
51475;SDS011;37554;50.362;7.568;2022-07-01T10:47:31;0.98;;;0.30;;
51475;SDS011;37554;50.362;7.568;2022-07-01T10:52:57;1.10;;;0.50;;
51475;SDS011;37554;50.362;7.568;2022-07-01T10:55:35;1.35;;;0.88;;
51475;SDS011;37554;50.362;7.568;2022-07-01T10:58:05;1.80;;;0.40;;
51475;SDS011;37554;50.362;7.568;2022-07-01T11:00:32;2.05;;;0.38;;
51475;SDS011;37554;50.362;7.568;2022-07-01T11:03:07;1.67;;;0.50;;
51475;SDS011;37554;50.362;7.568;2022-07-01T11:05:41;0.88;;;0.30;;
51475;SDS011;37554;50.362;7.568;2022-07-01T11:08:08;0.93;;;0.30;;
51475;SDS011;37554;50.362;7.568;2022-07-01T11:10:35;1.15;;;0.28;;
51475;SDS011;37554;50.362;7.568;2022-07-01T11:13:01;0.80;;;0.30;;
51475;SDS011;37554;50.362;7.568;2022-07-01T11:15:28;1.80;;;0.40;;
51475;SDS011;37554;50.362;7.568;2022-07-01T11:17:54;1.98;;;0.77;;
51475;SDS011;37554;50.362;7.568;2022-07-01T11:20:25;0.73;;;0.40;;
51475;SDS011;37554;50.362;7.568;2022-07-01T11:22:52;0.98;;;0.50;;
51475;SDS011;37554;50.362;7.568;2022-07-01T11:25:19;0.88;;;0.35;;
51475;SDS011;37554;50.362;7.568;2022-07-01T11:27:46;1.50;;;0.30;;
51475;SDS011;37554;50.362;7.568;2022-07-01T11:30:13;1.52;;;0.30;;
51475;SDS011;37554;50.362;7.568;2022-07-01T11:35:08;0.57;;;0.32;;
51475;SDS011;37554;50.362;7.568;2022-07-01T11:38:07;0.95;;;0.28;;
51475;SDS011;37554;50.362;7.568;2022-07-01T11:40:54;1.92;;;0.50;;
51475;SDS011;37554;50.362;7.568;2022-07-01T11:43:22;1.02;;;0.30;;
51475;SDS011;37554;50.362;7.568;2022-07-01T11:45:49;0.68;;;0.30;;
51475;SDS011;37554;50.362;7.568;2022-07-01T11:48:28;3.60;;;0.38;;
51475;SDS011;37554;50.362;7.568;2022-07-01T11:50:54;3.85;;;0.40;;
51475;SDS011;37554;50.362;7.568;2022-07-01T11:53:20;2.10;;;0.50;;
51475;SDS011;37554;50.362;7.568;2022-07-01T11:55:45;6.55;;;0.45;;
51475;SDS011;37554;50.362;7.568;2022-07-01T11:58:12;5.38;;;0.57;;
51475;SDS011;37554;50.362;7.568;2022-07-01T12:00:38;1.17;;;0.45;;
51475;SDS011;37554;50.362;7.568;2022-07-01T12:03:04;1.25;;;0.40;;
51475;SDS011;37554;50.362;7.568;2022-07-01T12:05:32;0.73;;;0.30;;
51475;SDS011;37554;50.362;7.568;2022-07-01T12:07:59;3.47;;;0.50;;
51475;SDS011;37554;50.362;7.568;2022-07-01T12:10:25;1.67;;;0.30;;
51475;SDS011;37554;50.362;7.568;2022-07-01T12:12:52;1.60;;;0.40;;
51475;SDS011;37554;50.362;7.568;2022-07-01T12:15:18;2.25;;;0.32;;
51475;SDS011;37554;50.362;7.568;2022-07-01T12:17:46;2.05;;;0.50;;
51475;SDS011;37554;50.362;7.568;2022-07-01T12:20:12;1.10;;;0.40;;
51475;SDS011;37554;50.362;7.568;2022-07-01T12:22:37;2.47;;;0.45;;
51475;SDS011;37554;50.362;7.568;2022-07-01T12:25:10;0.90;;;0.40;;
51475;SDS011;37554;50.362;7.568;2022-07-01T12:27:38;0.95;;;0.30;;
51475;SDS011;37554;50.362;7.568;2022-07-01T12:30:06;2.63;;;0.52;;
51475;SDS011;37554;50.362;7.568;2022-07-01T12:32:37;2.13;;;0.40;;
51475;SDS011;37554;50.362;7.568;2022-07-01T12:35:07;1.67;;;0.50;;
51475;SDS011;37554;50.362;7.568;2022-07-01T12:37:52;2.17;;;0.50;;
51475;SDS011;37554;50.362;7.568;2022-07-01T12:40:20;3.55;;;0.50;;
51475;SDS011;37554;50.362;7.568;2022-07-01T12:42:52;3.42;;;0.40;;
51475;SDS011;37554;50.362;7.568;2022-07-01T12:45:22;1.35;;;0.40;;
51475;SDS011;37554;50.362;7.568;2022-07-01T12:47:50;0.55;;;0.30;;
51475;SDS011;37554;50.362;7.568;2022-07-01T12:53:08;1.05;;;0.30;;
51475;SDS011;37554;50.362;7.568;2022-07-01T12:58:03;0.40;;;0.30;;
51475;SDS011;37554;50.362;7.568;2022-07-01T13:00:34;1.23;;;0.30;;
51475;SDS011;37554;50.362;7.568;2022-07-01T13:03:01;0.90;;;0.20;;
51475;SDS011;37554;50.362;7.568;2022-07-01T13:05:28;0.90;;;0.35;;
51475;SDS011;37554;50.362;7.568;2022-07-01T13:07:55;1.23;;;0.30;;
51475;SDS011;37554;50.362;7.568;2022-07-01T13:10:21;1.42;;;0.50;;
51475;SDS011;37554;50.362;7.568;2022-07-01T13:12:48;1.08;;;0.30;;
51475;SDS011;37554;50.362;7.568;2022-07-01T13:15:14;0.90;;;0.30;;
51475;SDS011;37554;50.362;7.568;2022-07-01T13:17:41;1.70;;;0.50;;
51475;SDS011;37554;50.362;7.568;2022-07-01T13:20:07;1.63;;;0.40;;
51475;SDS011;37554;50.362;7.568;2022-07-01T13:22:34;1.45;;;0.60;;
51475;SDS011;37554;50.362;7.568;2022-07-01T13:25:00;4.88;;;0.50;;
51475;SDS011;37554;50.362;7.568;2022-07-01T13:27:26;3.25;;;0.40;;
51475;SDS011;37554;50.362;7.568;2022-07-01T13:29:52;1.50;;;0.40;;
51475;SDS011;37554;50.362;7.568;2022-07-01T13:32:18;1.35;;;0.60;;
51475;SDS011;37554;50.362;7.568;2022-07-01T13:34:44;2.70;;;0.40;;
51475;SDS011;37554;50.362;7.568;2022-07-01T13:37:10;2.42;;;0.45;;
51475;SDS011;37554;50.362;7.568;2022-07-01T13:39:36;2.42;;;0.32;;
51475;SDS011;37554;50.362;7.568;2022-07-01T13:42:02;2.28;;;0.50;;
51475;SDS011;37554;50.362;7.568;2022-07-01T13:44:28;3.50;;;0.50;;
51475;SDS011;37554;50.362;7.568;2022-07-01T13:46:53;4.70;;;0.38;;
51475;SDS011;37554;50.362;7.568;2022-07-01T13:49:19;2.25;;;0.50;;
51475;SDS011;37554;50.362;7.568;2022-07-01T13:51:45;0.70;;;0.47;;
51475;SDS011;37554;50.362;7.568;2022-07-01T13:54:11;2.67;;;0.30;;
51475;SDS011;37554;50.362;7.568;2022-07-01T13:56:36;1.45;;;0.40;;
51475;SDS011;37554;50.362;7.568;2022-07-01T13:59:02;2.28;;;0.30;;
51475;SDS011;37554;50.362;7.568;2022-07-01T14:01:28;2.15;;;0.40;;
51475;SDS011;37554;50.362;7.568;2022-07-01T14:03:56;3.70;;;0.30;;
51475;SDS011;37554;50.362;7.568;2022-07-01T14:06:22;1.05;;;0.40;;
51475;SDS011;37554;50.362;7.568;2022-07-01T14:08:48;2.22;;;0.40;;
51475;SDS011;37554;50.362;7.568;2022-07-01T14:11:14;0.47;;;0.20;;
51475;SDS011;37554;50.362;7.568;2022-07-01T14:13:39;3.53;;;0.45;;
51475;SDS011;37554;50.362;7.568;2022-07-01T14:16:06;1.33;;;0.28;;
51475;SDS011;37554;50.362;7.568;2022-07-01T14:18:33;1.92;;;0.40;;
51475;SDS011;37554;50.362;7.568;2022-07-01T14:21:00;1.85;;;0.30;;
51475;SDS011;37554;50.362;7.568;2022-07-01T14:23:26;0.60;;;0.38;;
51475;SDS011;37554;50.362;7.568;2022-07-01T14:25:52;1.23;;;0.40;;
51475;SDS011;37554;50.362;7.568;2022-07-01T14:28:18;2.15;;;0.20;;
51475;SDS011;37554;50.362;7.568;2022-07-01T14:30:44;2.83;;;0.30;;
51475;SDS011;37554;50.362;7.568;2022-07-01T14:33:10;1.95;;;0.32;;
51475;SDS011;37554;50.362;7.568;2022-07-01T14:35:35;2.33;;;0.40;;
51475;SDS011;37554;50.362;7.568;2022-07-01T14:38:02;1.42;;;0.30;;
51475;SDS011;37554;50.362;7.568;2022-07-01T14:40:28;2.08;;;0.40;;
51475;SDS011;37554;50.362;7.568;2022-07-01T14:42:56;2.05;;;0.30;;
51475;SDS011;37554;50.362;7.568;2022-07-01T14:45:21;1.20;;;0.30;;
51475;SDS011;37554;50.362;7.568;2022-07-01T14:47:47;2.22;;;0.35;;
51475;SDS011;37554;50.362;7.568;2022-07-01T14:50:14;1.92;;;0.52;;
51475;SDS011;37554;50.362;7.568;2022-07-01T14:52:40;0.80;;;0.30;;
51475;SDS011;37554;50.362;7.568;2022-07-01T14:55:07;2.05;;;0.30;;
51475;SDS011;37554;50.362;7.568;2022-07-01T14:57:34;3.83;;;0.50;;
51475;SDS011;37554;50.362;7.568;2022-07-01T15:00:00;2.67;;;0.30;;
51475;SDS011;37554;50.362;7.568;2022-07-01T15:02:27;2.25;;;0.40;;
51475;SDS011;37554;50.362;7.568;2022-07-01T15:04:54;1.02;;;0.20;;
51475;SDS011;37554;50.362;7.568;2022-07-01T15:07:19;4.35;;;0.52;;
51475;SDS011;37554;50.362;7.568;2022-07-01T15:09:45;3.35;;;0.40;;
51475;SDS011;37554;50.362;7.568;2022-07-01T15:12:11;2.50;;;0.40;;
51475;SDS011;37554;50.362;7.568;2022-07-01T15:14:37;2.75;;;0.50;;
51475;SDS011;37554;50.362;7.568;2022-07-01T15:17:03;2.30;;;0.60;;
51475;SDS011;37554;50.362;7.568;2022-07-01T15:19:29;2.47;;;0.70;;